Terminal Aerodrome Forecast
Issued by NWS

Home | Current Version | Previous Version | Text Only | Print | Product List | Glossary On
Versions: 1 2 3 4 5 6 7 8 9 10 11 12 13 14 15 16 17 18 19 20 21 22 23 24 25
000
FTUS41 KOKX 140500
TAFGON
TAF
KGON 140537Z 1406/1506 21005KT P6SM SCT015 BKN080
      TEMPO 1408/1410 -SHRA SCT012 BKN025
     FM141600 20008KT 5SM BR SCT015 BKN040
     FM141900 19010KT P6SM SCT040 BKN060
     FM150200 16007KT 2SM BR VCSH SCT010 BKN025=

USA.gov is the U.S. government's official web portal to all federal, state and local government web resources and services.